Baudour Heliport

EBBA · Hainaut, Wallonia, 比利时

2024年7月17日 12:002024年7月17日 21:00有效
时间
星期三
12:00
星期三
13:00
星期三
14:00
30%
星期三
15:00
30%
星期三
16:00
30%
星期三
17:00
星期三
18:00
星期三
19:00
星期三
20:00
代码
VFR
VFR
MVFR
MVFR
MVFR
VFR
VFR
VFR
VFR
天气
疏云,零星散落的云朵
疏云,零星散落的云朵
光 阵雨 雨
光 阵雨 雨
光 阵雨 雨
疏云,零星散落的云朵
疏云,零星散落的云朵
疏云,零星散落的云朵
疏云,零星散落的云朵
能见度
10 km+
10 km+
7 km
7 km
7 km
10 km+
10 km+
10 km+
10 km+
天花板
-
-
-
-
-
-
-
-
-
230°
230°
230°
230°
270°
270°
270°
270°
270°
270°
230°
230°
230°
230°
010°
010°
010°
010°
速度
6 kt
6 kt
6 kt
6 kt
6 kt
6 kt
6 kt
6 kt
6 kt
阵风
温度/星期日

原版的

TAF EBCV 170841Z 1710/1719 23006KT 9999 SCT020
PROB30 TEMPO 1712/1715 27005KT 7000 -SHRA FEW020TCU SCT025
BECMG 1717/1719 01005KT FEW030 BY EBWM

TAF Baudour Heliport

Baudour Heliport是,比利时中的直升机场。 该机场位于纬度50,46963和经度3,83872。 本场的ICAO机场代码为EBBA。 机场在Bruxelles FIR中。

该航空气象观测是针对Chièvres Air Base在2024年7月17日 10:41, 当地时间进行的。 从2024年7月17日 12:00到2024年7月17日 21:00, 当地时间有效.

预报

  • 在星期三 12:00和21:00之间

    • 风: 风来自230°方向,速度为6 kt。
    • 能见度: 10 km 或者更多
    • 乌云: 疏云,零星散落的云朵在2.000 ft的高度.
  • 暂时在星期三 14:00和17:00之间 ({一个机会)

    • 风: 风来自270°方向,速度为5 kt。
    • 能见度: 7 km
    • 天气: 光 阵雨 雨
    • 乌云: 几云 高耸的积云在2.000 ft的高度 和 疏云,零星散落的云朵在2.500 ft的高度.
  • 介于星期三 19:00和21:00之间

    • 风: 风来自010°方向,速度为5 kt。
    • 乌云: 几云在3.000 ft的高度.

白天

今天,太阳从05:53升起,在21:48降落。 这适用于Baudour Heliport,世界夏令时可能有所不同。 当地时间与世界标准时间之间的时差为+2 小时。 夏令时目前正在进行中。

报告变更